Time;durP1;ratioP1;P1;durP2;ratioP2;P2;SDS_P1;SDS_P2;PMS_P1;PMS_P2;Temp;Humidity;BMP_temperature;BMP_pressure;BME280_temperature;BME280_humidity;BME280_pressure;Samples;Min_cycle;Max_cycle;Signal;HPM_P1;HPM_P2
2023/03/29 00:00:38;;;;;;;4.37;3.10;;;9.60;1.00;;;;;;5075955;28;20173;-75
2023/03/29 00:03:04;;;;;;;3.83;3.13;;;9.50;1.00;;;;;;5075885;28;20173;-74
2023/03/29 00:05:32;;;;;;;4.57;3.20;;;9.60;1.00;;;;;;5075744;28;20168;-74
2023/03/29 00:08:00;;;;;;;3.97;3.30;;;9.50;1.00;;;;;;5075891;28;20586;-74
2023/03/29 00:10:27;;;;;;;6.03;3.73;;;9.50;1.00;;;;;;5075352;28;20195;-75
2023/03/29 00:12:53;;;;;;;5.07;3.60;;;9.50;1.00;;;;;;5075753;28;20187;-75
2023/03/29 00:15:19;;;;;;;6.17;3.33;;;9.50;1.00;;;;;;5075623;28;20216;-75
2023/03/29 00:17:45;;;;;;;7.20;3.40;;;9.50;1.00;;;;;;5075425;28;20287;-74
2023/03/29 00:20:11;;;;;;;6.00;3.63;;;9.50;1.00;;;;;;5075653;28;20303;-73
2023/03/29 00:22:38;;;;;;;6.50;3.73;;;9.50;1.00;;;;;;5075552;28;20176;-74
2023/03/29 00:25:06;;;;;;;5.50;3.97;;;9.60;1.00;;;;;;5074990;28;20168;-74
2023/03/29 00:27:32;;;;;;;6.47;4.30;;;9.60;1.00;;;;;;5075623;28;20165;-74
2023/03/29 00:29:57;;;;;;;5.20;3.80;;;9.60;1.00;;;;;;5075351;28;20276;-75
2023/03/29 00:32:24;;;;;;;6.77;3.90;;;9.70;1.00;;;;;;5075238;28;20172;-75
2023/03/29 00:34:49;;;;;;;8.03;4.43;;;9.70;1.00;;;;;;5075231;28;20192;-75
2023/03/29 00:37:17;;;;;;;6.43;4.40;;;9.60;1.00;;;;;;5075263;28;20172;-74
2023/03/29 00:39:45;;;;;;;8.40;4.60;;;9.60;1.00;;;;;;5074868;28;20168;-74
2023/03/29 00:42:13;;;;;;;8.77;4.73;;;9.70;1.00;;;;;;5075098;28;20169;-74
2023/03/29 00:45:03;;;;;;;7.77;4.73;;;9.60;1.00;;;;;;5074899;28;20183;-74
2023/03/29 00:47:36;;;;;;;7.13;4.70;;;9.50;1.00;;;;;;5074979;28;20168;-74
2023/03/29 00:50:30;;;;;;;6.03;4.57;;;9.50;99.90;;;;;;5075040;28;20173;-74
2023/03/29 00:53:05;;;;;;;8.60;4.43;;;9.60;99.90;;;;;;5075157;28;20195;-73
2023/03/29 00:55:56;;;;;;;7.00;4.70;;;9.50;99.90;;;;;;5074150;28;20215;-74
2023/03/29 00:58:30;;;;;;;7.43;4.60;;;9.60;99.90;;;;;;5063728;28;20185;-74
2023/03/29 01:01:07;;;;;;;7.27;4.97;;;9.60;99.90;;;;;;5074816;28;20173;-74
2023/03/29 01:03:44;;;;;;;8.17;4.20;;;9.60;99.90;;;;;;5074516;28;20517;-73
2023/03/29 01:06:15;;;;;;;10.83;4.73;;;9.60;99.90;;;;;;5074457;28;20168;-74
2023/03/29 01:08:49;;;;;;;9.57;4.90;;;9.70;99.90;;;;;;5074231;28;20157;-74
2023/03/29 01:11:25;;;;;;;8.13;4.87;;;9.70;99.90;;;;;;5074626;28;20191;-74
2023/03/29 01:14:17;;;;;;;9.10;4.80;;;9.70;99.90;;;;;;5074374;28;20188;-73
2023/03/29 01:16:44;;;;;;;7.13;4.33;;;9.70;99.90;;;;;;5036942;28;20216;-74
2023/03/29 01:19:14;;;;;;;7.87;5.33;;;9.70;99.90;;;;;;5074086;28;20231;-75
2023/03/29 01:22:00;;;;;;;8.60;5.13;;;9.70;99.90;;;;;;5074324;28;20168;-74
2023/03/29 01:24:40;;;;;;;7.90;4.90;;;9.60;99.90;;;;;;5073809;28;20188;-74
2023/03/29 01:27:40;;;;;;;8.00;4.80;;;9.60;1.00;;;;;;5074372;28;20187;-73
2023/03/29 01:30:17;;;;;;;7.40;4.53;;;9.70;1.00;;;;;;5074203;28;20171;-77
2023/03/29 01:32:54;;;;;;;7.07;4.50;;;9.70;1.00;;;;;;5074028;28;20245;-75
2023/03/29 01:35:21;;;;;;;6.90;4.90;;;9.70;1.00;;;;;;5074074;28;20204;-74
2023/03/29 01:38:01;;;;;;;10.57;4.87;;;9.70;1.00;;;;;;5073763;28;20172;-74
2023/03/29 01:40:27;;;;;;;9.60;5.20;;;9.70;1.00;;;;;;5074136;28;20176;-75
2023/03/29 01:43:22;;;;;;;8.43;5.23;;;9.70;1.00;;;;;;5055938;28;20172;-73
2023/03/29 01:46:03;;;;;;;9.57;5.67;;;9.70;1.00;;;;;;5042805;28;20319;-74
2023/03/29 01:48:46;;;;;;;8.83;4.83;;;9.70;1.00;;;;;;5074031;28;20176;-76
2023/03/29 01:51:35;;;;;;;9.30;5.03;;;9.70;1.00;;;;;;5074244;28;20247;-76
2023/03/29 01:54:29;;;;;;;9.77;5.17;;;9.80;1.00;;;;;;5073623;28;20180;-75
2023/03/29 01:56:57;;;;;;;11.27;5.50;;;9.80;1.00;;;;;;5073657;28;20659;-74
2023/03/29 01:59:29;;;;;;;8.37;4.93;;;9.80;1.00;;;;;;5055708;28;20579;-74
2023/03/29 02:01:58;;;;;;;9.80;4.70;;;9.80;1.00;;;;;;5073466;28;20180;-73
2023/03/29 02:04:38;;;;;;;5.87;4.53;;;9.80;1.00;;;;;;5073312;28;20659;-73
2023/03/29 02:07:07;;;;;;;9.30;4.50;;;9.80;1.00;;;;;;5073436;28;20164;-74
2023/03/29 02:09:36;;;;;;;6.67;4.33;;;9.80;1.00;;;;;;5073198;28;20247;-74
2023/03/29 02:12:03;;;;;;;8.30;4.87;;;9.70;1.00;;;;;;5073265;28;20214;-74
2023/03/29 02:14:29;;;;;;;7.87;5.07;;;9.70;1.00;;;;;;5073055;28;20180;-74
2023/03/29 02:16:55;;;;;;;9.90;4.90;;;9.70;1.00;;;;;;5073616;28;20616;-73
2023/03/29 02:19:23;;;;;;;7.47;4.40;;;9.80;1.00;;;;;;5073264;28;20219;-73
2023/03/29 02:22:00;;;;;;;5.37;4.40;;;9.80;1.00;;;;;;5073004;28;20267;-73
2023/03/29 02:24:31;;;;;;;7.53;4.97;;;9.80;1.00;;;;;;5073271;28;20194;-74
2023/03/29 02:26:57;;;;;;;6.17;4.43;;;9.80;1.00;;;;;;5073109;28;20218;-74
2023/03/29 02:29:23;;;;;;;7.30;4.70;;;9.90;1.00;;;;;;5073186;28;20199;-74
2023/03/29 02:31:58;;;;;;;7.10;4.47;;;10.00;1.00;;;;;;5073201;28;20517;-74
2023/03/29 02:34:36;;;;;;;8.17;4.80;;;9.90;1.00;;;;;;5073063;28;20229;-74
2023/03/29 02:37:10;;;;;;;9.43;4.53;;;9.90;1.00;;;;;;5073080;28;20627;-74
2023/03/29 02:39:38;;;;;;;7.40;4.60;;;9.90;1.00;;;;;;5073159;28;20226;-73
2023/03/29 02:42:05;;;;;;;8.70;4.67;;;9.90;1.00;;;;;;5072871;28;20164;-74
2023/03/29 02:44:35;;;;;;;5.80;4.30;;;10.00;1.00;;;;;;5073029;28;20619;-74
2023/03/29 02:47:12;;;;;;;5.27;4.20;;;10.00;1.00;;;;;;5073321;28;20181;-75
2023/03/29 02:49:38;;;;;;;10.07;5.00;;;10.00;1.00;;;;;;5072734;28;20172;-74
2023/03/29 02:52:14;;;;;;;9.23;5.30;;;10.00;1.00;;;;;;5072770;28;20180;-74
2023/03/29 02:54:42;;;;;;;7.67;4.57;;;10.00;1.00;;;;;;5072795;28;20222;-73
2023/03/29 02:57:09;;;;;;;8.87;5.27;;;10.00;1.00;;;;;;5073111;28;20263;-73
2023/03/29 02:59:37;;;;;;;7.13;4.90;;;10.00;1.00;;;;;;5073085;28;20177;-74
2023/03/29 03:02:04;;;;;;;6.77;4.80;;;10.00;1.00;;;;;;5073087;28;20169;-75
2023/03/29 03:04:30;;;;;;;10.20;5.37;;;10.10;1.00;;;;;;5072363;28;20207;-74
2023/03/29 03:06:56;;;;;;;8.93;5.67;;;10.00;1.00;;;;;;5073014;28;20184;-73
2023/03/29 03:09:21;;;;;;;10.00;5.60;;;10.00;1.00;;;;;;5072686;28;20165;-73
2023/03/29 03:11:47;;;;;;;7.40;5.43;;;10.10;1.00;;;;;;5072849;28;20183;-74
2023/03/29 03:14:12;;;;;;;8.23;5.23;;;10.10;1.00;;;;;;5072826;28;20172;-74
2023/03/29 03:16:38;;;;;;;7.13;5.23;;;10.20;1.00;;;;;;5072450;28;20215;-74
2023/03/29 03:19:05;;;;;;;10.03;5.73;;;10.10;1.00;;;;;;5071743;28;20265;-73
2023/03/29 03:21:31;;;;;;;9.40;5.47;;;10.10;1.00;;;;;;5072449;28;20182;-75
2023/03/29 03:23:56;;;;;;;9.57;5.40;;;10.10;1.00;;;;;;5076130;28;20160;-74
2023/03/29 03:26:23;;;;;;;8.20;5.73;;;10.10;1.00;;;;;;5076534;28;20196;-73
2023/03/29 03:28:49;;;;;;;7.93;5.33;;;10.20;1.00;;;;;;5076029;28;20172;-74
2023/03/29 03:31:16;;;;;;;8.37;5.50;;;10.20;1.00;;;;;;5076298;28;20171;-74
2023/03/29 03:33:42;;;;;;;13.40;5.87;;;10.20;1.00;;;;;;5076110;28;20206;-74
2023/03/29 03:36:09;;;;;;;7.70;5.33;;;10.20;1.00;;;;;;5076001;28;20578;-74
2023/03/29 03:38:36;;;;;;;11.37;5.90;;;10.10;1.00;;;;;;5076270;28;20643;-74
2023/03/29 03:41:02;;;;;;;10.03;5.80;;;10.20;1.00;;;;;;5075889;28;20187;-75
2023/03/29 03:43:28;;;;;;;10.07;5.77;;;10.10;1.00;;;;;;5076193;28;20238;-73
2023/03/29 03:45:54;;;;;;;7.03;4.90;;;10.10;1.00;;;;;;5075504;28;20623;-72
2023/03/29 03:48:21;;;;;;;13.37;5.90;;;10.10;1.00;;;;;;5075166;28;20169;-74
2023/03/29 03:50:57;;;;;;;10.57;6.10;;;10.10;1.00;;;;;;5075618;28;20180;-74
2023/03/29 03:53:23;;;;;;;8.70;5.43;;;10.10;1.00;;;;;;5075393;28;20582;-73
2023/03/29 03:55:50;;;;;;;8.93;5.60;;;10.00;1.00;;;;;;5075538;28;20738;-73
2023/03/29 03:58:16;;;;;;;13.87;5.83;;;10.00;1.00;;;;;;5075703;28;20172;-73
2023/03/29 04:00:41;;;;;;;11.47;5.40;;;10.00;1.00;;;;;;5075582;28;20180;-73
2023/03/29 04:03:07;;;;;;;8.97;5.43;;;10.10;1.00;;;;;;5075084;28;20194;-74
2023/03/29 04:05:38;;;;;;;9.57;5.63;;;10.00;1.00;;;;;;5075030;28;20533;-75
2023/03/29 04:08:05;;;;;;;11.57;5.50;;;10.10;1.00;;;;;;5075801;28;20161;-75
2023/03/29 04:10:32;;;;;;;10.13;5.47;;;10.20;1.00;;;;;;5075388;28;20169;-72
2023/03/29 04:13:01;;;;;;;8.33;5.47;;;10.20;1.00;;;;;;5075361;28;20252;-74
2023/03/29 04:15:27;;;;;;;8.83;5.37;;;10.10;1.00;;;;;;5074457;28;20203;-73
2023/03/29 04:17:56;;;;;;;6.83;5.17;;;10.00;1.00;;;;;;5074726;28;20353;-73
2023/03/29 04:20:23;;;;;;;8.83;5.53;;;10.00;1.00;;;;;;5075252;28;20176;-73
2023/03/29 04:22:49;;;;;;;8.17;5.37;;;9.90;1.00;;;;;;5074966;28;20616;-74
2023/03/29 04:25:15;;;;;;;10.27;5.40;;;9.80;1.00;;;;;;5075329;28;20218;-74
2023/03/29 04:27:41;;;;;;;9.97;5.70;;;9.90;1.00;;;;;;5074817;28;20173;-73
2023/03/29 04:30:08;;;;;;;10.53;5.57;;;9.90;1.00;;;;;;5056966;28;20168;-74
2023/03/29 04:32:34;;;;;;;10.87;5.60;;;9.90;1.00;;;;;;5073943;28;20252;-73
2023/03/29 04:35:00;;;;;;;8.27;5.60;;;9.90;1.00;;;;;;5074658;28;20219;-73
2023/03/29 04:37:26;;;;;;;9.97;5.87;;;9.90;1.00;;;;;;5074775;28;20588;-74
2023/03/29 04:39:53;;;;;;;11.03;5.17;;;10.00;1.00;;;;;;5074436;28;20267;-73
2023/03/29 04:42:19;;;;;;;12.30;6.07;;;10.10;1.00;;;;;;5074657;28;20176;-73
2023/03/29 04:44:45;;;;;;;8.93;5.70;;;10.20;1.00;;;;;;5074500;28;20196;-74
2023/03/29 04:47:14;;;;;;;9.07;5.20;;;10.00;1.00;;;;;;5074204;28;20200;-74
2023/03/29 04:49:40;;;;;;;10.33;5.50;;;10.10;1.00;;;;;;5074567;28;20177;-74
2023/03/29 04:52:06;;;;;;;10.63;5.87;;;10.00;1.00;;;;;;5073611;28;20263;-74
2023/03/29 04:54:32;;;;;;;8.57;5.73;;;10.10;1.00;;;;;;5073874;28;20192;-74
2023/03/29 04:56:58;;;;;;;13.37;6.60;;;10.20;1.00;;;;;;5074149;28;20655;-73
2023/03/29 04:59:23;;;;;;;15.30;5.93;;;10.20;1.00;;;;;;5073930;28;20165;-74
2023/03/29 05:01:49;;;;;;;10.53;6.07;;;10.20;1.00;;;;;;5073838;28;20177;-74
2023/03/29 05:04:15;;;;;;;11.03;6.47;;;10.10;1.00;;;;;;5074189;28;20241;-74
2023/03/29 05:06:40;;;;;;;11.07;6.30;;;10.10;1.00;;;;;;5073860;28;20176;-74
2023/03/29 05:09:07;;;;;;;12.30;6.30;;;10.20;1.00;;;;;;5073653;28;20199;-74
2023/03/29 05:11:33;;;;;;;9.63;6.27;;;10.30;1.00;;;;;;5073335;28;20165;-75
2023/03/29 05:14:02;;;;;;;11.43;6.53;;;10.40;1.00;;;;;;5074398;28;20234;-74
2023/03/29 05:16:30;;;;;;;10.77;6.57;;;10.40;1.00;;;;;;5073470;28;20208;-74
2023/03/29 05:18:57;;;;;;;14.23;6.70;;;10.50;1.00;;;;;;5073362;28;20225;-74
2023/03/29 05:21:24;;;;;;;20.27;7.97;;;10.40;1.00;;;;;;5073106;28;20515;-75
2023/03/29 05:23:51;;;;;;;16.00;7.57;;;10.30;1.00;;;;;;5072765;28;20616;-75
2023/03/29 05:26:16;;;;;;;12.80;7.30;;;10.30;1.00;;;;;;5073137;28;20168;-73
2023/03/29 05:28:42;;;;;;;12.97;6.60;;;10.30;1.00;;;;;;5073417;28;20161;-73
2023/03/29 05:31:08;;;;;;;13.23;7.20;;;10.40;1.00;;;;;;5072755;28;20180;-75
2023/03/29 05:33:35;;;;;;;18.23;6.83;;;10.40;1.00;;;;;;5073284;28;20195;-75
2023/03/29 05:36:06;;;;;;;12.27;6.70;;;10.40;1.00;;;;;;5054626;28;20224;-74
2023/03/29 05:38:33;;;;;;;12.73;6.97;;;10.30;1.00;;;;;;5073155;28;20169;-75
2023/03/29 05:40:59;;;;;;;19.10;7.27;;;10.20;1.00;;;;;;5072265;28;20188;-75
2023/03/29 05:43:25;;;;;;;21.37;7.30;;;10.20;1.00;;;;;;5072686;28;20628;-74
2023/03/29 05:45:55;;;;;;;16.67;7.77;;;10.20;1.00;;;;;;5071675;28;20721;-74
2023/03/29 05:48:22;;;;;;;11.37;7.03;;;10.10;1.00;;;;;;5072900;28;20183;-74
2023/03/29 05:50:50;;;;;;;21.80;7.47;;;10.20;1.00;;;;;;5072732;28;20528;-76
2023/03/29 05:53:16;;;;;;;13.60;7.13;;;10.20;1.00;;;;;;5072624;28;20180;-75
2023/03/29 05:55:42;;;;;;;17.67;7.30;;;10.40;1.00;;;;;;5072260;28;20690;-74
2023/03/29 05:58:09;;;;;;;9.77;6.20;;;10.40;1.00;;;;;;5072449;28;20259;-74
2023/03/29 06:00:36;;;;;;;15.63;6.90;;;10.40;1.00;;;;;;5072708;28;20161;-73
2023/03/29 06:03:02;;;;;;;8.97;5.97;;;10.50;1.00;;;;;;5071930;28;20180;-75
2023/03/29 06:05:28;;;;;;;11.37;6.70;;;10.50;1.00;;;;;;5071780;28;20462;-74
2023/03/29 06:07:55;;;;;;;11.97;6.10;;;10.50;1.00;;;;;;5072573;28;20203;-75
2023/03/29 06:10:22;;;;;;;14.83;6.87;;;10.60;1.00;;;;;;5072372;28;20184;-76
2023/03/29 06:12:49;;;;;;;12.83;6.50;;;10.60;1.00;;;;;;5071240;28;20194;-74
2023/03/29 06:15:15;;;;;;;11.63;6.73;;;10.60;1.00;;;;;;5072179;28;20215;-75
2023/03/29 06:17:41;;;;;;;11.03;6.57;;;10.70;1.00;;;;;;5071942;28;20173;-76
2023/03/29 06:20:09;;;;;;;17.67;7.33;;;10.80;1.00;;;;;;5072647;28;20184;-76
2023/03/29 06:22:39;;;;;;;14.17;6.80;;;10.80;1.00;;;;;;5071227;28;20244;-74
2023/03/29 06:25:09;;;;;;;10.07;7.03;;;10.90;1.00;;;;;;5071377;28;20217;-74
2023/03/29 06:27:36;;;;;;;13.37;6.93;;;10.90;1.00;;;;;;5072365;28;20235;-73
2023/03/29 06:30:02;;;;;;;10.80;6.40;;;10.90;1.00;;;;;;5072669;28;20177;-74
2023/03/29 06:32:28;;;;;;;13.87;6.50;;;10.90;1.00;;;;;;5072386;28;20160;-76
2023/03/29 06:34:54;;;;;;;14.33;6.70;;;10.80;1.00;;;;;;5071187;28;20212;-74
2023/03/29 06:37:21;;;;;;;14.23;6.80;;;10.90;1.00;;;;;;5072058;28;20165;-75
2023/03/29 06:39:51;;;;;;;14.53;6.47;;;10.90;1.00;;;;;;5072193;28;20236;-76
2023/03/29 06:42:21;;;;;;;14.23;6.30;;;10.90;1.00;;;;;;5071603;28;20318;-75
2023/03/29 06:44:48;;;;;;;11.80;6.63;;;10.90;1.00;;;;;;5071739;28;20183;-75
2023/03/29 06:47:14;;;;;;;14.17;6.53;;;11.00;1.00;;;;;;5071389;28;20169;-75
2023/03/29 06:49:40;;;;;;;13.03;7.00;;;11.00;1.00;;;;;;5072179;28;20164;-75
2023/03/29 06:52:06;;;;;;;12.47;7.03;;;11.00;1.00;;;;;;5071884;28;20169;-75
2023/03/29 06:54:32;;;;;;;9.70;6.53;;;11.10;1.00;;;;;;5070568;28;20267;-75
2023/03/29 06:56:58;;;;;;;10.53;6.40;;;11.20;1.00;;;;;;5055602;28;20604;-75
2023/03/29 06:59:25;;;;;;;17.33;7.80;;;11.30;1.00;;;;;;5076061;28;20171;-75
2023/03/29 07:01:52;;;;;;;10.67;6.67;;;11.30;1.00;;;;;;5075568;28;20165;-75
2023/03/29 07:04:18;;;;;;;12.73;6.70;;;11.40;1.00;;;;;;5075466;28;20188;-75
2023/03/29 07:06:47;;;;;;;11.13;6.77;;;11.50;1.00;;;;;;5075365;28;20636;-76
2023/03/29 07:09:15;;;;;;;16.93;7.23;;;11.60;1.00;;;;;;5075260;28;20172;-74
2023/03/29 07:11:41;;;;;;;11.80;7.30;;;11.60;1.00;;;;;;5072524;28;20181;-74
2023/03/29 07:14:07;;;;;;;12.73;6.23;;;11.50;1.00;;;;;;5055571;28;20179;-74
2023/03/29 07:16:36;;;;;;;12.57;6.17;;;11.40;1.00;;;;;;5054723;28;20205;-73
2023/03/29 07:19:02;;;;;;;10.30;6.23;;;11.30;1.00;;;;;;5055049;28;20315;-73
2023/03/29 07:21:29;;;;;;;10.47;5.93;;;11.30;1.00;;;;;;5074779;28;20218;-74
2023/03/29 07:23:57;;;;;;;9.03;6.13;;;11.40;1.00;;;;;;5076479;28;20263;-72
2023/03/29 07:26:23;;;;;;;12.97;5.80;;;11.50;1.00;;;;;;5082905;28;20233;-72
2023/03/29 07:28:49;;;;;;;11.77;5.43;;;11.50;1.00;;;;;;5082559;28;20180;-74
2023/03/29 07:31:16;;;;;;;10.73;5.87;;;11.70;1.00;;;;;;5080089;28;20175;-73
2023/03/29 07:33:43;;;;;;;13.07;5.87;;;11.80;1.00;;;;;;5061676;28;20626;-71
2023/03/29 07:36:09;;;;;;;6.80;5.23;;;11.80;1.00;;;;;;5087855;28;20611;-74
2023/03/29 07:38:35;;;;;;;6.27;5.20;;;12.00;1.00;;;;;;5086213;28;20290;-73
2023/03/29 07:41:06;;;;;;;13.30;5.80;;;12.10;1.00;;;;;;5079891;28;20180;-73
2023/03/29 07:43:33;;;;;;;13.23;5.33;;;12.20;1.00;;;;;;5091308;28;20176;-71
2023/03/29 07:46:05;;;;;;;9.43;5.63;;;12.20;1.00;;;;;;5080453;28;20631;-74
2023/03/29 07:48:31;;;;;;;12.10;5.50;;;12.10;1.00;;;;;;5084666;28;20192;-75
2023/03/29 07:50:57;;;;;;;9.20;5.27;;;12.30;1.00;;;;;;5089017;28;20218;-73
2023/03/29 07:53:23;;;;;;;12.50;5.70;;;12.10;1.00;;;;;;5076544;28;20197;-74
2023/03/29 07:55:49;;;;;;;13.37;5.63;;;12.10;1.00;;;;;;5078778;28;20207;-74
2023/03/29 07:58:15;;;;;;;8.87;5.10;;;12.10;1.00;;;;;;5086434;28;20658;-76
2023/03/29 08:00:42;;;;;;;9.13;5.60;;;12.00;1.00;;;;;;5074651;28;20172;-77
2023/03/29 08:03:09;;;;;;;7.83;5.23;;;11.90;1.00;;;;;;5073546;28;20168;-75
2023/03/29 08:05:36;;;;;;;11.87;5.60;;;12.00;1.00;;;;;;5074913;28;20709;-75
2023/03/29 08:08:08;;;;;;;8.23;5.60;;;12.10;1.00;;;;;;5074364;28;20180;-74
2023/03/29 08:10:35;;;;;;;9.70;5.33;;;12.20;1.00;;;;;;5073444;28;20294;-75
2023/03/29 08:13:06;;;;;;;11.67;6.07;;;12.30;1.00;;;;;;5074820;28;20173;-74
2023/03/29 08:15:32;;;;;;;12.03;6.37;;;12.50;1.00;;;;;;5074980;28;20207;-76
2023/03/29 08:17:58;;;;;;;9.20;5.40;;;12.80;1.00;;;;;;5074904;28;20208;-75
2023/03/29 08:20:23;;;;;;;9.33;5.10;;;12.90;1.00;;;;;;5074769;28;20628;-75
2023/03/29 08:22:49;;;;;;;9.57;5.27;;;13.00;1.00;;;;;;5075188;28;20222;-76
2023/03/29 08:25:17;;;;;;;9.47;5.30;;;13.00;1.00;;;;;;5074156;28;20169;-75
2023/03/29 08:27:43;;;;;;;12.13;5.70;;;13.10;1.00;;;;;;5074553;28;20172;-75
2023/03/29 08:30:09;;;;;;;10.40;5.57;;;13.30;1.00;;;;;;5074740;28;20188;-75
2023/03/29 08:32:35;;;;;;;14.53;6.10;;;13.70;1.00;;;;;;5073561;28;20172;-74
2023/03/29 08:35:06;;;;;;;10.73;5.83;;;14.20;1.00;;;;;;5073166;28;20741;-75
2023/03/29 08:37:31;;;;;;;9.63;5.83;;;14.20;1.00;;;;;;5056505;28;20172;-75
2023/03/29 08:39:57;;;;;;;9.60;5.77;;;14.10;1.00;;;;;;5073769;28;20255;-75
2023/03/29 08:42:50;;;;;;;8.07;5.57;;;14.00;1.00;;;;;;5074044;28;20624;-76
2023/03/29 08:45:40;;;;;;;11.83;5.73;;;14.10;1.00;;;;;;5074201;28;20191;-76
2023/03/29 08:48:30;;;;;;;8.90;5.50;;;14.10;1.00;;;;;;5073763;28;20255;-74
2023/03/29 08:51:06;;;;;;;12.60;5.80;;;14.10;1.00;;;;;;5074146;28;20165;-75
2023/03/29 08:53:32;;;;;;;7.70;5.30;;;13.80;1.00;;;;;;5073148;28;20188;-75
2023/03/29 08:56:01;;;;;;;9.07;5.40;;;13.60;1.00;;;;;;5073515;28;20204;-75
2023/03/29 08:58:31;;;;;;;11.47;5.83;;;13.70;1.00;;;;;;5074009;28;20179;-73
2023/03/29 09:00:58;;;;;;;6.53;4.90;;;13.90;1.00;;;;;;5074052;28;20182;-75
2023/03/29 09:03:27;;;;;;;9.23;5.63;;;13.80;1.00;;;;;;5073906;28;20251;-75
2023/03/29 09:06:01;;;;;;;6.37;5.30;;;13.70;1.00;;;;;;5073030;28;20168;-76
2023/03/29 09:08:27;;;;;;;11.40;5.63;;;13.80;1.00;;;;;;5071818;28;20187;-77
2023/03/29 09:11:11;;;;;;;7.90;4.97;;;14.10;1.00;;;;;;5055563;28;20177;-76
2023/03/29 09:13:36;;;;;;;8.13;5.13;;;14.30;1.00;;;;;;5073723;28;20172;-75
2023/03/29 09:16:56;;;;;;;12.20;5.30;;;14.30;1.00;;;;;;5073600;28;20284;-76
2023/03/29 09:19:28;;;;;;;11.37;5.63;;;14.40;1.00;;;;;;4992134;28;20863;-76
2023/03/29 09:22:12;;;;;;;6.50;5.03;;;14.50;1.00;;;;;;4996965;28;20258;-76
2023/03/29 09:25:07;;;;;;;10.20;5.27;;;14.40;1.00;;;;;;4995119;28;20179;-76
2023/03/29 09:27:43;;;;;;;9.63;4.93;;;14.30;1.00;;;;;;4965548;28;20171;-75
2023/03/29 09:30:46;;;;;;;6.00;5.00;;;14.60;1.00;;;;;;5003070;28;20206;-75
2023/03/29 09:33:25;;;;;;;8.83;5.47;;;14.80;1.00;;;;;;4969886;28;20704;-77
2023/03/29 09:36:16;;;;;;;8.00;5.30;;;15.20;1.00;;;;;;5004895;28;20210;-76
2023/03/29 09:38:46;;;;;;;10.33;5.30;;;15.40;1.00;;;;;;4998823;28;20183;-77
2023/03/29 09:41:40;;;;;;;15.17;5.50;;;15.60;99.90;;;;;;4991109;28;20251;-77
2023/03/29 09:44:14;;;;;;;11.20;5.33;;;15.80;1.00;;;;;;5008647;28;20182;-77
2023/03/29 09:46:48;;;;;;;10.70;4.93;;;16.20;99.90;;;;;;4998030;28;20639;-77
2023/03/29 09:49:20;;;;;;;12.02;5.05;;;16.80;99.90;;;;;;5006837;28;20194;-76
2023/03/29 09:51:48;;;;;;;9.93;4.97;;;17.00;99.90;;;;;;4995436;28;20256;-76
2023/03/29 09:54:15;;;;;;;7.82;5.22;;;17.30;99.90;;;;;;5055812;28;20526;-76
2023/03/29 09:56:41;;;;;;;7.30;4.78;;;17.20;99.90;;;;;;5064919;28;20230;-74
2023/03/29 09:59:10;;;;;;;7.53;4.80;;;17.00;99.90;;;;;;5055909;28;20633;-75
2023/03/29 10:01:38;;;;;;;5.43;4.10;;;17.00;99.90;;;;;;5068660;28;20180;-76
2023/03/29 10:04:09;;;;;;;7.22;3.88;;;16.90;99.90;;;;;;5059274;28;20169;-75
2023/03/29 10:06:36;;;;;;;6.70;4.10;;;16.90;99.90;;;;;;5060544;28;20206;-75
2023/03/29 10:09:03;;;;;;;8.73;4.85;;;16.90;99.90;;;;;;5067057;28;20688;-75
2023/03/29 10:11:35;;;;;;;8.10;5.03;;;16.80;99.90;;;;;;5054269;28;20192;-75
2023/03/29 10:14:12;;;;;;;5.75;4.25;;;17.10;99.90;;;;;;5064841;28;20248;-75
2023/03/29 10:16:40;;;;;;;9.23;4.60;;;17.40;99.90;;;;;;5063983;28;20257;-75
2023/03/29 10:19:45;;;;;;;13.02;4.68;;;17.80;99.90;;;;;;5068962;28;20289;-75
2023/03/29 10:22:24;;;;;;;9.45;5.15;;;17.70;99.90;;;;;;4998481;28;20236;-75
2023/03/29 10:24:56;;;;;;;6.63;4.57;;;17.80;99.90;;;;;;4995905;28;20190;-76
2023/03/29 10:27:25;;;;;;;7.50;4.25;;;18.20;99.90;;;;;;5006398;28;20211;-78
2023/03/29 10:29:55;;;;;;;7.97;4.63;;;19.20;99.90;;;;;;4995786;28;20213;-78
2023/03/29 10:32:21;;;;;;;4.95;4.20;;;20.00;99.30;;;;;;5000165;28;20207;-77
2023/03/29 10:34:50;;;;;;;8.45;4.13;;;19.90;98.00;;;;;;5003170;28;20213;-75
2023/03/29 10:37:20;;;;;;;8.73;4.10;;;19.80;98.10;;;;;;4993204;28;20204;-76
2023/03/29 10:39:50;;;;;;;5.88;3.90;;;19.30;98.70;;;;;;5004739;28;20288;-75
2023/03/29 10:42:21;;;;;;;6.25;3.95;;;18.80;99.70;;;;;;4998910;28;20176;-76
2023/03/29 10:44:58;;;;;;;5.63;3.85;;;18.70;99.90;;;;;;4989438;28;20273;-74
2023/03/29 10:47:24;;;;;;;10.07;4.32;;;18.50;99.90;;;;;;5006748;28;20285;-75
2023/03/29 10:49:52;;;;;;;4.55;3.65;;;18.30;99.90;;;;;;4995159;28;20271;-76
2023/03/29 10:52:20;;;;;;;8.80;4.30;;;17.70;97.40;;;;;;5000046;28;20267;-75
2023/03/29 10:54:47;;;;;;;11.85;5.03;;;17.60;99.90;;;;;;5002343;28;20203;-75
2023/03/29 10:57:18;;;;;;;5.25;4.00;;;17.40;99.90;;;;;;5013999;28;20200;-75
2023/03/29 11:00:05;;;;;;;12.38;5.70;;;17.30;99.90;;;;;;5087116;28;20180;-78
2023/03/29 11:02:48;;;;;;;9.48;4.25;;;17.50;99.90;;;;;;5082473;28;20180;-75
2023/03/29 11:05:44;;;;;;;9.52;4.45;;;17.50;99.90;;;;;;5075218;28;20165;-75
2023/03/29 11:08:37;;;;;;;11.80;5.55;;;17.50;99.90;;;;;;5048693;28;20299;-75
2023/03/29 11:11:34;;;;;;;8.77;4.95;;;17.60;99.90;;;;;;5086864;28;20639;-75
2023/03/29 11:14:55;;;;;;;9.82;4.50;;;17.30;99.90;;;;;;5064414;28;20172;-79
2023/03/29 11:17:45;;;;;;;4.45;4.05;;;17.70;99.90;;;;;;5072734;28;20188;-79
2023/03/29 11:20:11;;;;;;;9.93;4.10;;;18.10;1.00;;;;;;5041377;28;20631;-76
2023/03/29 11:22:37;;;;;;;8.25;4.35;;;18.40;99.90;;;;;;5041712;28;20263;-77
2023/03/29 11:25:24;;;;;;;6.07;4.53;;;18.10;99.90;;;;;;5035144;28;20198;-76
2023/03/29 11:28:16;;;;;;;5.10;4.45;;;17.80;1.00;;;;;;5022730;28;20173;-75
2023/03/29 11:31:01;;;;;;;7.50;4.63;;;17.50;99.90;;;;;;5030277;28;20182;-74
2023/03/29 11:33:47;;;;;;;8.20;4.85;;;17.80;99.90;;;;;;5046733;28;20173;-76
2023/03/29 11:36:21;;;;;;;5.75;4.80;;;17.70;99.90;;;;;;5039513;28;20205;-74
2023/03/29 11:39:06;;;;;;;13.82;9.60;;;17.60;99.90;;;;;;5037872;28;20204;-76
2023/03/29 11:41:38;;;;;;;42.17;35.55;;;17.40;99.90;;;;;;5047494;28;20172;-76
2023/03/29 11:44:10;;;;;;;11.95;9.50;;;17.50;1.00;;;;;;5040454;28;20629;-77
2023/03/29 11:46:48;;;;;;;14.80;13.60;;;17.70;1.00;;;;;;5041721;28;20202;-76
2023/03/29 11:49:39;;;;;;;6.82;4.70;;;17.70;1.00;;;;;;5050978;28;20165;-75
2023/03/29 11:52:17;;;;;;;7.78;6.72;;;17.50;1.00;;;;;;5042490;28;20243;-74
2023/03/29 11:54:56;;;;;;;4.78;3.75;;;17.70;1.00;;;;;;5041594;28;20197;-77
2023/03/29 11:57:46;;;;;;;9.15;3.80;;;17.70;1.00;;;;;;5049821;28;20173;-75
2023/03/29 12:00:19;;;;;;;4.65;3.50;;;17.50;1.00;;;;;;5043186;28;20165;-75
2023/03/29 12:02:59;;;;;;;3.50;3.28;;;18.10;1.00;;;;;;5041412;28;20637;-76
2023/03/29 12:05:36;;;;;;;4.07;3.70;;;18.10;1.00;;;;;;5050377;28;20173;-75
2023/03/29 12:08:05;;;;;;;5.55;3.80;;;18.40;99.90;;;;;;5041634;28;20249;-75
2023/03/29 12:10:41;;;;;;;4.25;3.70;;;18.60;99.90;;;;;;5042920;28;20174;-75
2023/03/29 12:13:13;;;;;;;4.70;3.90;;;18.80;99.90;;;;;;5048892;28;20200;-74
2023/03/29 12:15:44;;;;;;;5.75;4.10;;;19.10;1.00;;;;;;5038344;28;20243;-74
2023/03/29 12:18:44;;;;;;;5.80;3.70;;;19.10;1.00;;;;;;5057759;28;20299;-73
2023/03/29 12:21:19;;;;;;;26.35;23.60;;;18.80;1.00;;;;;;5091147;28;20222;-75
2023/03/29 12:23:46;;;;;;;8.68;7.65;;;18.70;1.00;;;;;;5063172;28;20156;-74
2023/03/29 12:26:45;;;;;;;7.15;5.32;;;18.40;1.00;;;;;;5073735;28;20173;-74
2023/03/29 12:29:25;;;;;;;5.78;5.22;;;18.50;1.00;;;;;;5090626;28;20164;-75
2023/03/29 12:32:10;;;;;;;5.82;4.68;;;18.30;99.90;;;;;;5079655;28;20179;-74
2023/03/29 12:34:51;;;;;;;7.50;6.85;;;18.30;99.90;;;;;;5081902;28;20165;-75
2023/03/29 12:37:45;;;;;;;11.68;10.63;;;18.40;99.90;;;;;;5090129;28;20720;-76
2023/03/29 12:40:19;;;;;;;3.80;3.50;;;18.40;99.90;;;;;;5064226;28;20654;-75
2023/03/29 12:42:53;;;;;;;5.07;4.10;;;18.50;99.90;;;;;;5080993;28;20175;-75
2023/03/29 12:45:33;;;;;;;7.10;5.55;;;18.50;99.90;;;;;;5071899;28;20640;-76
2023/03/29 12:48:00;;;;;;;4.32;3.92;;;18.60;99.90;;;;;;5081101;28;20167;-75
2023/03/29 12:50:36;;;;;;;4.43;3.97;;;18.20;1.00;;;;;;5082024;28;20184;-76
2023/03/29 12:53:14;;;;;;;8.18;4.80;;;18.20;1.00;;;;;;5087779;28;20262;-75
2023/03/29 12:55:43;;;;;;;4.38;3.83;;;18.60;99.90;;;;;;5061322;28;20698;-75
2023/03/29 12:58:20;;;;;;;6.78;3.92;;;18.60;99.90;;;;;;5085944;28;20678;-75
2023/03/29 13:00:49;;;;;;;4.03;3.60;;;18.50;99.90;;;;;;5086704;28;20639;-76
2023/03/29 13:03:39;;;;;;;4.20;3.30;;;18.50;1.00;;;;;;5076100;28;20713;-75
2023/03/29 13:06:08;;;;;;;6.85;4.38;;;18.40;1.00;;;;;;5085966;28;20176;-76
2023/03/29 13:08:44;;;;;;;7.63;3.78;;;18.70;1.00;;;;;;5085104;28;20204;-76
2023/03/29 13:11:39;;;;;;;4.70;3.83;;;18.80;99.90;;;;;;5076807;28;20172;-75
2023/03/29 13:14:15;;;;;;;5.25;3.55;;;18.60;1.00;;;;;;5080087;28;20172;-76
2023/03/29 13:16:42;;;;;;;5.00;3.45;;;18.50;1.00;;;;;;5080914;28;20277;-75